Time;durP1;ratioP1;P1;durP2;ratioP2;P2;SDS_P1;SDS_P2;PMS_P1;PMS_P2;Temp;Humidity;BMP_temperature;BMP_pressure;BME280_temperature;BME280_humidity;BME280_pressure;Samples;Min_cycle;Max_cycle;Signal;HPM_P1;HPM_P2
2022/08/01 00:00:06;;;;;;;5.30;1.77;;;;;;;;;;5017853;28;20067;-79
2022/08/01 00:02:31;;;;;;;1.75;1.60;;;;;;;;;;5000052;28;20028;-79
2022/08/01 00:04:57;;;;;;;1.88;1.50;;;;;;;;;;5018285;28;20029;-79
2022/08/01 00:07:22;;;;;;;4.60;1.85;;;;;;;;;;5012336;28;20754;-78
2022/08/01 00:09:48;;;;;;;3.38;1.70;;;;;;;;;;5017903;28;20049;-79
2022/08/01 00:12:13;;;;;;;1.95;1.73;;;;;;;;;;5016663;28;20076;-80
2022/08/01 00:14:38;;;;;;;1.98;1.60;;;;;;;;;;5014809;28;20388;-78
2022/08/01 00:17:04;;;;;;;2.65;1.83;;;;;;;;;;5012511;28;20037;-80
2022/08/01 00:19:29;;;;;;;2.25;1.60;;;;;;;;;;5015709;28;20053;-79
2022/08/01 00:21:54;;;;;;;1.83;1.70;;;;;;;;;;5010062;28;20045;-81
2022/08/01 00:24:20;;;;;;;4.47;1.73;;;;;;;;;;5012321;28;20065;-79
2022/08/01 00:26:45;;;;;;;2.15;1.60;;;;;;;;;;5008916;28;20025;-79
2022/08/01 00:29:11;;;;;;;2.25;1.52;;;;;;;;;;5011950;28;20029;-80
2022/08/01 00:31:36;;;;;;;1.80;1.70;;;;;;;;;;5012577;28;20068;-80
2022/08/01 00:34:01;;;;;;;1.80;1.67;;;;;;;;;;5012323;28;20037;-80
2022/08/01 00:36:27;;;;;;;1.55;1.35;;;;;;;;;;5006978;28;20025;-81
2022/08/01 00:38:52;;;;;;;1.90;1.60;;;;;;;;;;5010996;28;20025;-78
2022/08/01 00:41:17;;;;;;;2.17;1.80;;;;;;;;;;5012639;28;20563;-77
2022/08/01 00:43:43;;;;;;;3.15;1.83;;;;;;;;;;5012574;28;20029;-81
2022/08/01 00:46:08;;;;;;;4.05;1.67;;;;;;;;;;5005571;28;20037;-77
2022/08/01 00:48:34;;;;;;;3.50;1.80;;;;;;;;;;5003297;28;20036;-78
2022/08/01 00:50:59;;;;;;;2.08;1.73;;;;;;;;;;5005677;28;20108;-79
2022/08/01 00:53:25;;;;;;;2.35;1.75;;;;;;;;;;5002164;28;20037;-77
2022/08/01 00:55:50;;;;;;;3.65;1.63;;;;;;;;;;5002475;28;20088;-80
2022/08/01 00:58:16;;;;;;;3.05;1.67;;;;;;;;;;5010883;28;20033;-80
2022/08/01 01:00:42;;;;;;;2.38;1.90;;;;;;;;;;5012496;28;20120;-79
2022/08/01 01:03:08;;;;;;;1.95;1.70;;;;;;;;;;5013098;28;21945;-79
2022/08/01 01:05:43;;;;;;;1.70;1.60;;;;;;;;;;5014974;28;20431;-77
2022/08/01 01:08:15;;;;;;;2.67;1.58;;;;;;;;;;5016474;28;20075;-76
2022/08/01 01:10:45;;;;;;;2.78;2.03;;;;;;;;;;5016213;28;20049;-77
2022/08/01 01:13:17;;;;;;;2.70;1.90;;;;;;;;;;5018398;28;20436;-78
2022/08/01 01:15:51;;;;;;;1.73;1.63;;;;;;;;;;5021439;28;20033;-78
2022/08/01 01:18:30;;;;;;;2.08;1.45;;;;;;;;;;5018764;28;20029;-78
2022/08/01 01:21:17;;;;;;;3.13;1.50;;;;;;;;;;5018393;28;20060;-79
2022/08/01 01:24:12;;;;;;;2.47;1.70;;;;;;;;;;5021408;28;20025;-76
2022/08/01 01:27:02;;;;;;;2.00;1.80;;;;;;;;;;5018548;28;20053;-79
2022/08/01 01:29:38;;;;;;;1.70;1.60;;;;;;;;;;5019528;28;20044;-80
2022/08/01 01:32:35;;;;;;;2.13;1.70;;;;;;;;;;5018746;28;20029;-77
2022/08/01 01:35:24;;;;;;;1.90;1.67;;;;;;;;;;5013522;28;20057;-79
2022/08/01 01:37:54;;;;;;;1.65;1.55;;;;;;;;;;5014960;28;20050;-79
2022/08/01 01:40:21;;;;;;;3.78;1.90;;;;;;;;;;5017685;28;20083;-78
2022/08/01 01:42:48;;;;;;;3.85;1.95;;;;;;;;;;5013378;28;20106;-79
2022/08/01 01:45:15;;;;;;;1.90;1.80;;;;;;;;;;5014110;28;20025;-81
2022/08/01 01:47:42;;;;;;;2.58;1.92;;;;;;;;;;5008381;28;20457;-80
2022/08/01 01:50:09;;;;;;;4.20;2.00;;;;;;;;;;5009571;28;20278;-78
2022/08/01 01:52:38;;;;;;;2.00;1.80;;;;;;;;;;5012249;28;20033;-79
2022/08/01 01:55:06;;;;;;;3.78;1.70;;;;;;;;;;5009346;28;20431;-80
2022/08/01 01:57:35;;;;;;;1.85;1.60;;;;;;;;;;5013498;28;20029;-80
2022/08/01 02:00:01;;;;;;;1.98;1.77;;;;;;;;;;5016565;28;20021;-77
2022/08/01 02:02:28;;;;;;;4.05;1.95;;;;;;;;;;5015058;28;20039;-78
2022/08/01 02:04:54;;;;;;;6.35;2.03;;;;;;;;;;5014597;28;20060;-77
2022/08/01 02:07:23;;;;;;;2.88;1.85;;;;;;;;;;5013679;28;20156;-77
2022/08/01 02:09:49;;;;;;;3.22;1.85;;;;;;;;;;4998447;28;20061;-76
2022/08/01 02:12:17;;;;;;;2.42;1.95;;;;;;;;;;5020870;28;20053;-79
2022/08/01 02:14:44;;;;;;;2.78;1.63;;;;;;;;;;5019783;28;20029;-80
2022/08/01 02:17:12;;;;;;;1.85;1.60;;;;;;;;;;5011578;28;20041;-77
2022/08/01 02:19:37;;;;;;;3.50;2.15;;;;;;;;;;5019651;28;20044;-82
2022/08/01 02:22:29;;;;;;;1.90;1.70;;;;;;;;;;5023632;28;20033;-79
2022/08/01 02:25:03;;;;;;;2.35;1.85;;;;;;;;;;5000742;28;20082;-80
2022/08/01 02:27:37;;;;;;;2.55;1.83;;;;;;;;;;5012651;28;20033;-79
2022/08/01 02:30:06;;;;;;;1.67;1.58;;;;;;;;;;5015195;28;20033;-80
2022/08/01 02:32:38;;;;;;;2.15;1.52;;;;;;;;;;5015267;28;20036;-81
2022/08/01 02:35:07;;;;;;;5.28;1.77;;;;;;;;;;5015697;28;20029;-80
2022/08/01 02:37:36;;;;;;;3.42;1.85;;;;;;;;;;5013439;28;20061;-80
2022/08/01 02:40:02;;;;;;;3.92;1.88;;;;;;;;;;5014174;28;20025;-80
2022/08/01 02:42:29;;;;;;;5.50;1.80;;;;;;;;;;5013879;28;20041;-79
2022/08/01 02:44:57;;;;;;;2.15;1.75;;;;;;;;;;4996316;28;20039;-79
2022/08/01 02:47:24;;;;;;;3.92;1.70;;;;;;;;;;5010662;28;20033;-80
2022/08/01 02:49:52;;;;;;;1.60;1.50;;;;;;;;;;5010916;28;20045;-79
2022/08/01 02:52:20;;;;;;;2.97;1.80;;;;;;;;;;5010985;28;20026;-77
2022/08/01 02:54:49;;;;;;;2.53;1.70;;;;;;;;;;5012673;28;20025;-80
2022/08/01 02:57:17;;;;;;;2.55;2.03;;;;;;;;;;5014155;28;20044;-80
2022/08/01 02:59:45;;;;;;;2.22;1.70;;;;;;;;;;5011121;28;20025;-79
2022/08/01 03:02:11;;;;;;;1.95;1.73;;;;;;;;;;5014379;28;20495;-78
2022/08/01 03:04:38;;;;;;;3.22;1.92;;;;;;;;;;5016735;28;20056;-79
2022/08/01 03:07:06;;;;;;;1.77;1.60;;;;;;;;;;5017445;28;20324;-77
2022/08/01 03:09:36;;;;;;;2.55;1.80;;;;;;;;;;5014952;28;20400;-79
2022/08/01 03:12:06;;;;;;;4.22;1.77;;;;;;;;;;5015241;28;20124;-77
2022/08/01 03:14:36;;;;;;;1.90;1.80;;;;;;;;;;5010715;28;20120;-78
2022/08/01 03:17:03;;;;;;;2.38;1.90;;;;;;;;;;5011476;28;20071;-79
2022/08/01 03:19:30;;;;;;;1.95;1.75;;;;;;;;;;5017295;28;20110;-77
2022/08/01 03:21:58;;;;;;;2.28;1.80;;;;;;;;;;5019407;28;20029;-79
2022/08/01 03:24:24;;;;;;;3.90;1.80;;;;;;;;;;5018581;28;20052;-77
2022/08/01 03:26:51;;;;;;;1.80;1.60;;;;;;;;;;5020505;28;20048;-79
2022/08/01 03:29:22;;;;;;;1.88;1.77;;;;;;;;;;5023330;28;20053;-81
2022/08/01 03:31:49;;;;;;;4.07;2.08;;;;;;;;;;5018251;28;20049;-80
2022/08/01 03:34:15;;;;;;;2.15;1.75;;;;;;;;;;5024134;28;20117;-80
2022/08/01 03:37:00;;;;;;;2.67;1.88;;;;;;;;;;5023947;28;20029;-76
2022/08/01 03:39:33;;;;;;;2.63;1.75;;;;;;;;;;5018074;28;20116;-78
2022/08/01 03:42:04;;;;;;;1.98;1.50;;;;;;;;;;5017395;28;20030;-78
2022/08/01 03:44:32;;;;;;;4.57;1.90;;;;;;;;;;5010664;28;20025;-79
2022/08/01 03:47:03;;;;;;;2.28;1.60;;;;;;;;;;5010256;28;22352;-80
2022/08/01 03:49:37;;;;;;;2.07;1.60;;;;;;;;;;5013256;28;20038;-78
2022/08/01 03:52:06;;;;;;;5.38;2.15;;;;;;;;;;5014306;28;20029;-77
2022/08/01 03:54:35;;;;;;;3.85;1.90;;;;;;;;;;5012636;28;20032;-78
2022/08/01 03:57:02;;;;;;;3.45;1.90;;;;;;;;;;5014473;28;20403;-80
2022/08/01 03:59:29;;;;;;;5.55;2.20;;;;;;;;;;5014101;28;20029;-77
2022/08/01 04:01:55;;;;;;;4.55;1.88;;;;;;;;;;5018643;28;20029;-79
2022/08/01 04:04:21;;;;;;;3.97;1.67;;;;;;;;;;5017204;28;20033;-80
2022/08/01 04:06:50;;;;;;;3.33;1.70;;;;;;;;;;5015613;28;20376;-80
2022/08/01 04:09:15;;;;;;;2.00;1.83;;;;;;;;;;5000203;28;20022;-79
2022/08/01 04:11:41;;;;;;;3.45;2.10;;;;;;;;;;5013568;28;20174;-80
2022/08/01 04:14:06;;;;;;;4.47;1.85;;;;;;;;;;5021610;28;20036;-80
2022/08/01 04:16:32;;;;;;;3.60;1.83;;;;;;;;;;5026348;28;20029;-78
2022/08/01 04:18:57;;;;;;;2.92;1.77;;;;;;;;;;5029380;28;20044;-80
2022/08/01 04:21:27;;;;;;;3.20;1.80;;;;;;;;;;5021308;28;20030;-78
2022/08/01 04:23:55;;;;;;;4.60;2.00;;;;;;;;;;5003116;28;20041;-78
2022/08/01 04:26:22;;;;;;;1.80;1.70;;;;;;;;;;5015143;28;20030;-80
2022/08/01 04:28:49;;;;;;;1.55;1.45;;;;;;;;;;5017266;28;20055;-79
2022/08/01 04:31:17;;;;;;;2.92;1.80;;;;;;;;;;5018223;28;20032;-77
2022/08/01 04:33:47;;;;;;;2.42;1.80;;;;;;;;;;5016502;28;20033;-79
2022/08/01 04:36:14;;;;;;;1.73;1.60;;;;;;;;;;5017928;28;20029;-80
2022/08/01 04:38:45;;;;;;;2.05;1.70;;;;;;;;;;5015733;28;20033;-82
2022/08/01 04:41:12;;;;;;;2.67;1.73;;;;;;;;;;5016719;28;20399;-81
2022/08/01 04:43:38;;;;;;;2.40;1.90;;;;;;;;;;5017730;28;20022;-80
2022/08/01 04:46:05;;;;;;;3.85;1.90;;;;;;;;;;5015796;28;20052;-81
2022/08/01 04:48:32;;;;;;;2.47;1.98;;;;;;;;;;5011401;28;20022;-80
2022/08/01 04:50:57;;;;;;;4.20;1.60;;;;;;;;;;5018166;28;20059;-81
2022/08/01 04:53:23;;;;;;;4.20;1.80;;;;;;;;;;4998655;28;20033;-79
2022/08/01 04:55:49;;;;;;;2.25;1.77;;;;;;;;;;5019823;28;20033;-78
2022/08/01 04:58:15;;;;;;;3.13;1.60;;;;;;;;;;5018675;28;20503;-79
2022/08/01 05:00:40;;;;;;;2.28;1.98;;;;;;;;;;5014162;28;20064;-79
2022/08/01 05:03:06;;;;;;;2.38;2.13;;;;;;;;;;5018977;28;20102;-80
2022/08/01 05:05:31;;;;;;;5.03;1.60;;;;;;;;;;5015711;28;20033;-79
2022/08/01 05:07:57;;;;;;;4.53;1.70;;;;;;;;;;5014970;28;20033;-79
2022/08/01 05:10:22;;;;;;;2.28;1.70;;;;;;;;;;5017038;28;20102;-80
2022/08/01 05:12:48;;;;;;;4.00;1.90;;;;;;;;;;5016580;28;20037;-80
2022/08/01 05:15:13;;;;;;;4.95;1.60;;;;;;;;;;5016633;28;20104;-79
2022/08/01 05:17:39;;;;;;;2.55;1.70;;;;;;;;;;5019842;28;20048;-78
2022/08/01 05:20:06;;;;;;;2.40;1.75;;;;;;;;;;5022522;28;20037;-80
2022/08/01 05:22:31;;;;;;;3.95;1.55;;;;;;;;;;5021319;28;20748;-79
2022/08/01 05:24:57;;;;;;;2.50;1.65;;;;;;;;;;5021033;28;20061;-77
2022/08/01 05:27:22;;;;;;;2.40;1.58;;;;;;;;;;5026346;28;20037;-79
2022/08/01 05:29:47;;;;;;;1.60;1.50;;;;;;;;;;5027274;28;20065;-77
2022/08/01 05:32:13;;;;;;;2.90;1.60;;;;;;;;;;5025326;28;20029;-76
2022/08/01 05:34:38;;;;;;;2.90;1.73;;;;;;;;;;5025708;28;20034;-77
2022/08/01 05:37:04;;;;;;;3.92;1.70;;;;;;;;;;5021836;28;20108;-78
2022/08/01 05:39:29;;;;;;;3.10;1.60;;;;;;;;;;5049870;28;20036;-76
2022/08/01 05:41:55;;;;;;;4.63;1.52;;;;;;;;;;5045121;28;20016;-77
2022/08/01 05:44:20;;;;;;;1.73;1.50;;;;;;;;;;5055082;28;20032;-78
2022/08/01 05:46:46;;;;;;;1.73;1.38;;;;;;;;;;5042706;28;20018;-78
2022/08/01 05:49:11;;;;;;;1.75;1.60;;;;;;;;;;5040281;28;20026;-78
2022/08/01 05:51:37;;;;;;;1.52;1.42;;;;;;;;;;5036402;28;20549;-78
2022/08/01 05:54:02;;;;;;;1.83;1.52;;;;;;;;;;5044027;28;20087;-78
2022/08/01 05:56:28;;;;;;;2.75;1.40;;;;;;;;;;5040094;28;20065;-81
2022/08/01 05:58:53;;;;;;;3.75;2.22;;;;;;;;;;5038384;28;20036;-80
2022/08/01 06:01:19;;;;;;;4.07;1.88;;;;;;;;;;5035700;28;20056;-80
2022/08/01 06:03:44;;;;;;;6.85;1.92;;;;;;;;;;5043852;28;20032;-80
2022/08/01 06:06:10;;;;;;;1.48;1.38;;;;;;;;;;5038056;28;20030;-79
2022/08/01 06:08:35;;;;;;;3.20;1.58;;;;;;;;;;5039766;28;20523;-80
2022/08/01 06:11:01;;;;;;;3.58;1.75;;;;;;;;;;5041002;28;20096;-80
2022/08/01 06:13:27;;;;;;;1.30;1.20;;;;;;;;;;5049401;28;20032;-82
2022/08/01 06:15:52;;;;;;;2.30;1.50;;;;;;;;;;5031115;28;20048;-82
2022/08/01 06:18:18;;;;;;;4.00;1.58;;;;;;;;;;5039605;28;20035;-82
2022/08/01 06:20:43;;;;;;;2.00;1.20;;;;;;;;;;5046166;28;20052;-82
2022/08/01 06:23:09;;;;;;;1.30;1.20;;;;;;;;;;5059636;28;20025;-83
2022/08/01 06:25:35;;;;;;;6.05;1.40;;;;;;;;;;5047777;28;20029;-83
2022/08/01 06:28:00;;;;;;;2.08;1.48;;;;;;;;;;5048324;28;20545;-83
2022/08/01 06:30:26;;;;;;;1.23;1.23;;;;;;;;;;5042240;28;20028;-81
2022/08/01 06:32:51;;;;;;;4.35;1.85;;;;;;;;;;5041907;28;20021;-81
2022/08/01 06:35:17;;;;;;;2.08;1.25;;;;;;;;;;5050817;28;20017;-83
2022/08/01 06:37:44;;;;;;;2.10;1.20;;;;;;;;;;5050694;28;20490;-82
2022/08/01 06:40:11;;;;;;;1.85;1.35;;;;;;;;;;5041386;28;20029;-82
2022/08/01 06:42:37;;;;;;;1.95;1.23;;;;;;;;;;5042339;28;20445;-83
2022/08/01 06:45:04;;;;;;;1.83;1.30;;;;;;;;;;5042120;28;20028;-83
2022/08/01 06:47:30;;;;;;;1.92;1.08;;;;;;;;;;5039269;28;20110;-83
2022/08/01 06:49:55;;;;;;;2.28;1.20;;;;;;;;;;5041605;28;20029;-80
2022/08/01 06:52:20;;;;;;;1.55;1.10;;;;;;;;;;5038392;28;20116;-82
2022/08/01 06:54:46;;;;;;;1.50;1.23;;;;;;;;;;5044582;28;20052;-83
2022/08/01 06:57:11;;;;;;;1.00;1.00;;;;;;;;;;5056179;28;20021;-83
2022/08/01 06:59:36;;;;;;;1.40;1.17;;;;;;;;;;5055918;28;20032;-81
2022/08/01 07:02:02;;;;;;;1.13;0.82;;;;;;;;;;5033483;28;20029;-83
2022/08/01 07:04:27;;;;;;;3.03;1.30;;;;;;;;;;5041196;28;20025;-83
2022/08/01 07:06:53;;;;;;;2.47;1.17;;;;;;;;;;5051851;28;20395;-82
2022/08/01 07:09:18;;;;;;;2.50;1.10;;;;;;;;;;5045177;28;20085;-82
2022/08/01 07:11:43;;;;;;;2.00;1.33;;;;;;;;;;5052132;28;20092;-82
2022/08/01 07:14:09;;;;;;;1.20;0.93;;;;;;;;;;5041496;28;20033;-82
2022/08/01 07:16:34;;;;;;;1.83;1.13;;;;;;;;;;5038750;28;20032;-79
2022/08/01 07:18:59;;;;;;;2.20;1.23;;;;;;;;;;5039222;28;20678;-83
2022/08/01 07:21:25;;;;;;;2.05;0.98;;;;;;;;;;5032337;28;20040;-84
2022/08/01 07:23:50;;;;;;;5.57;1.27;;;;;;;;;;5038556;28;20025;-82
2022/08/01 07:26:15;;;;;;;1.90;1.23;;;;;;;;;;5044527;28;20029;-83
2022/08/01 07:28:41;;;;;;;4.47;1.17;;;;;;;;;;5036992;28;20037;-82
2022/08/01 07:31:06;;;;;;;1.65;1.20;;;;;;;;;;5042027;28;20025;-84
2022/08/01 07:33:31;;;;;;;2.10;1.27;;;;;;;;;;5058590;28;20029;-84
2022/08/01 07:35:57;;;;;;;2.10;1.55;;;;;;;;;;5051783;28;20025;-83
2022/08/01 07:38:22;;;;;;;1.48;1.10;;;;;;;;;;5030686;28;20067;-84
2022/08/01 07:40:48;;;;;;;1.83;1.10;;;;;;;;;;5046005;28;20045;-84
2022/08/01 07:43:13;;;;;;;1.27;1.02;;;;;;;;;;5046121;28;20040;-82
2022/08/01 07:45:40;;;;;;;1.25;1.15;;;;;;;;;;5049525;28;20040;-82
2022/08/01 07:48:06;;;;;;;1.48;1.30;;;;;;;;;;5030139;28;20025;-83
2022/08/01 07:50:32;;;;;;;1.20;1.10;;;;;;;;;;5036762;28;20037;-81
2022/08/01 07:52:58;;;;;;;2.35;1.15;;;;;;;;;;5046224;28;20025;-84
2022/08/01 07:55:23;;;;;;;1.45;1.30;;;;;;;;;;5042686;28;20291;-83
2022/08/01 07:57:49;;;;;;;2.38;1.58;;;;;;;;;;5044260;28;20024;-84
2022/08/01 08:00:14;;;;;;;2.38;1.30;;;;;;;;;;5045976;28;20124;-83
2022/08/01 08:02:40;;;;;;;1.58;1.17;;;;;;;;;;5046796;28;20037;-82
2022/08/01 08:05:07;;;;;;;2.30;1.25;;;;;;;;;;5043864;28;20037;-80
2022/08/01 08:07:32;;;;;;;1.85;1.48;;;;;;;;;;5036335;28;20033;-82
2022/08/01 08:09:58;;;;;;;5.15;1.65;;;;;;;;;;5041017;28;20021;-82
2022/08/01 08:12:23;;;;;;;2.28;1.27;;;;;;;;;;5039463;28;20033;-82
2022/08/01 08:14:49;;;;;;;6.15;1.58;;;;;;;;;;5044901;28;20029;-81
2022/08/01 08:17:14;;;;;;;2.10;1.10;;;;;;;;;;5037665;28;20030;-84
2022/08/01 08:19:40;;;;;;;7.38;1.77;;;;;;;;;;5050380;28;20044;-82
2022/08/01 08:22:07;;;;;;;1.33;1.23;;;;;;;;;;5046873;28;20040;-80
2022/08/01 08:24:33;;;;;;;1.52;1.30;;;;;;;;;;5048273;28;20068;-84
2022/08/01 08:27:00;;;;;;;2.17;1.35;;;;;;;;;;5043916;28;20149;-84
2022/08/01 08:29:29;;;;;;;1.70;1.40;;;;;;;;;;5034121;28;20032;-81
2022/08/01 08:31:56;;;;;;;4.82;1.50;;;;;;;;;;5037227;28;20399;-84
2022/08/01 08:34:21;;;;;;;7.43;1.65;;;;;;;;;;5047908;28;20028;-84
2022/08/01 08:36:48;;;;;;;5.22;1.75;;;;;;;;;;5046769;28;20025;-82
2022/08/01 08:39:14;;;;;;;4.53;1.35;;;;;;;;;;5044196;28;20021;-84
2022/08/01 08:41:40;;;;;;;1.80;1.40;;;;;;;;;;5044125;28;20017;-84
2022/08/01 08:44:08;;;;;;;5.05;1.58;;;;;;;;;;5053459;28;20052;-84
2022/08/01 08:46:37;;;;;;;1.50;1.38;;;;;;;;;;5044345;28;20049;-83
2022/08/01 08:49:03;;;;;;;1.25;1.17;;;;;;;;;;5053922;28;20037;-83
2022/08/01 08:51:32;;;;;;;4.25;1.45;;;;;;;;;;5044063;28;20036;-84
2022/08/01 08:53:58;;;;;;;1.92;1.40;;;;;;;;;;5034761;28;20033;-83
2022/08/01 08:56:24;;;;;;;5.03;1.50;;;;;;;;;;5039811;28;20037;-83
2022/08/01 08:58:51;;;;;;;3.47;1.50;;;;;;;;;;5044296;28;20104;-83
2022/08/01 09:01:17;;;;;;;3.17;1.63;;;;;;;;;;5044960;28;20120;-83
2022/08/01 09:03:43;;;;;;;3.83;1.70;;;;;;;;;;5058783;28;20057;-83
2022/08/01 09:06:09;;;;;;;5.50;1.75;;;;;;;;;;5058686;28;20025;-82
2022/08/01 09:08:34;;;;;;;2.70;1.65;;;;;;;;;;5041911;28;20021;-82
2022/08/01 09:11:00;;;;;;;3.22;1.80;;;;;;;;;;5055764;28;20041;-83
2022/08/01 09:13:25;;;;;;;5.80;1.98;;;;;;;;;;5049422;28;20400;-84
2022/08/01 09:15:58;;;;;;;4.80;1.80;;;;;;;;;;5038096;28;20060;-83
2022/08/01 09:18:29;;;;;;;2.40;1.92;;;;;;;;;;5044142;28;20032;-85
2022/08/01 09:21:14;;;;;;;2.35;1.77;;;;;;;;;;5042318;28;20488;-84
2022/08/01 09:23:39;;;;;;;3.30;2.10;;;;;;;;;;5042635;28;20030;-83
2022/08/01 09:26:13;;;;;;;2.88;1.80;;;;;;;;;;5032683;28;20498;-82
2022/08/01 09:28:39;;;;;;;5.28;2.30;;;;;;;;;;5034038;28;20029;-81
2022/08/01 09:31:10;;;;;;;3.85;2.25;;;;;;;;;;5042258;28;20021;-83
2022/08/01 09:33:50;;;;;;;3.88;2.40;;;;;;;;;;5052404;28;20060;-83
2022/08/01 09:36:16;;;;;;;5.60;2.30;;;;;;;;;;5042597;28;20055;-83
2022/08/01 09:38:42;;;;;;;7.28;2.40;;;;;;;;;;5036836;28;20025;-83
2022/08/01 09:41:08;;;;;;;4.18;2.63;;;;;;;;;;5049117;28;20033;-83
2022/08/01 09:43:33;;;;;;;4.50;2.55;;;;;;;;;;5029280;28;20033;-84
2022/08/01 09:46:04;;;;;;;4.65;2.47;;;;;;;;;;5020630;28;20780;-81
2022/08/01 09:48:31;;;;;;;6.45;2.38;;;;;;;;;;5038251;28;20033;-83
2022/08/01 09:50:58;;;;;;;5.95;2.50;;;;;;;;;;5040923;28;20030;-81
2022/08/01 09:53:24;;;;;;;5.97;2.47;;;;;;;;;;5041790;28;20029;-81
2022/08/01 09:55:52;;;;;;;5.20;2.38;;;;;;;;;;5025552;28;20087;-82
2022/08/01 09:58:17;;;;;;;6.10;2.30;;;;;;;;;;5033208;28;20049;-80
2022/08/01 10:00:58;;;;;;;2.55;2.20;;;;;;;;;;5022853;28;20476;-84
2022/08/01 10:03:26;;;;;;;2.70;2.50;;;;;;;;;;5049968;28;20047;-84
2022/08/01 10:05:53;;;;;;;3.33;1.98;;;;;;;;;;5049097;28;20048;-81
2022/08/01 10:08:20;;;;;;;4.18;2.30;;;;;;;;;;5020627;28;20060;-83
2022/08/01 10:11:07;;;;;;;6.30;2.05;;;;;;;;;;5044755;28;20041;-84
2022/08/01 10:13:33;;;;;;;3.30;1.92;;;;;;;;;;5041862;28;20533;-83
2022/08/01 10:16:00;;;;;;;3.20;1.90;;;;;;;;;;5045456;28;20536;-84
2022/08/01 10:18:26;;;;;;;4.80;1.67;;;;;;;;;;5046445;28;20085;-83
2022/08/01 10:20:52;;;;;;;3.83;1.70;;;;;;;;;;5037049;28;20047;-85
2022/08/01 10:23:18;;;;;;;1.95;1.75;;;;;;;;;;5050457;28;20475;-82
2022/08/01 10:25:44;;;;;;;2.33;1.70;;;;;;;;;;5040367;28;20029;-83
2022/08/01 10:28:18;;;;;;;1.70;1.60;;;;;;;;;;5033996;28;20037;-84
2022/08/01 10:30:44;;;;;;;2.55;1.60;;;;;;;;;;5049283;28;20032;-83
2022/08/01 10:33:10;;;;;;;1.90;1.70;;;;;;;;;;5060611;28;20040;-84
2022/08/01 10:35:39;;;;;;;2.40;1.45;;;;;;;;;;5042250;28;20479;-84
2022/08/01 10:38:05;;;;;;;2.05;1.55;;;;;;;;;;5030505;28;20028;-83
2022/08/01 10:40:30;;;;;;;3.75;1.58;;;;;;;;;;5040119;28;20033;-83
2022/08/01 10:42:56;;;;;;;2.97;1.45;;;;;;;;;;5048768;28;20055;-83
2022/08/01 10:45:23;;;;;;;1.58;1.42;;;;;;;;;;5025928;28;20051;-83
2022/08/01 10:47:51;;;;;;;1.92;1.58;;;;;;;;;;5037018;28;20067;-83
2022/08/01 10:50:42;;;;;;;3.00;1.70;;;;;;;;;;5041081;28;20053;-83
2022/08/01 10:53:07;;;;;;;2.17;2.00;;;;;;;;;;5043637;28;20033;-81
2022/08/01 10:56:09;;;;;;;3.00;1.80;;;;;;;;;;5046226;28;20360;-85
2022/08/01 10:58:37;;;;;;;5.57;1.98;;;;;;;;;;5037660;28;20036;-85
2022/08/01 11:01:15;;;;;;;1.90;1.80;;;;;;;;;;5047519;28;20047;-83
2022/08/01 11:03:58;;;;;;;1.58;1.48;;;;;;;;;;5047197;28;20025;-82
2022/08/01 11:06:26;;;;;;;4.53;2.00;;;;;;;;;;5039730;28;20032;-84
2022/08/01 11:08:54;;;;;;;2.17;1.50;;;;;;;;;;5054761;28;20033;-85
2022/08/01 11:11:21;;;;;;;1.70;1.60;;;;;;;;;;5052122;28;20025;-84
2022/08/01 11:13:58;;;;;;;2.92;1.90;;;;;;;;;;5055297;28;20429;-85
2022/08/01 11:16:28;;;;;;;1.70;1.60;;;;;;;;;;5039744;28;20022;-84
2022/08/01 11:18:54;;;;;;;2.50;2.00;;;;;;;;;;5039361;28;20029;-82
2022/08/01 11:21:23;;;;;;;3.83;1.85;;;;;;;;;;5038773;28;20029;-84
2022/08/01 11:23:53;;;;;;;3.58;2.08;;;;;;;;;;5043080;28;20059;-83
2022/08/01 11:26:19;;;;;;;1.58;1.45;;;;;;;;;;5042366;28;20084;-84
2022/08/01 11:29:05;;;;;;;3.33;1.92;;;;;;;;;;5038670;28;20032;-84
2022/08/01 11:31:32;;;;;;;2.78;1.70;;;;;;;;;;5038977;28;20021;-82
2022/08/01 11:33:58;;;;;;;3.22;1.98;;;;;;;;;;5027626;28;20090;-84
2022/08/01 11:36:23;;;;;;;8.00;1.83;;;;;;;;;;5039337;28;20025;-84
2022/08/01 11:39:10;;;;;;;2.28;1.80;;;;;;;;;;5033751;28;20023;-83
2022/08/01 11:41:36;;;;;;;2.85;1.83;;;;;;;;;;5023563;28;20030;-83
2022/08/01 11:44:13;;;;;;;1.73;1.30;;;;;;;;;;5046172;28;20025;-83
2022/08/01 11:46:45;;;;;;;2.33;1.58;;;;;;;;;;5032820;28;20026;-82
2022/08/01 11:49:25;;;;;;;;;;;;;;;;;;5037353;28;20059;-83
2022/08/01 11:52:09;;;;;;;3.00;2.00;;;;;;;;;;5042766;28;19919;-80
2022/08/01 11:54:41;;;;;;;2.28;2.00;;;;;;;;;;5021178;28;20029;-83
2022/08/01 11:57:11;;;;;;;;;;;;;;;;;;5036825;28;20056;-85
2022/08/01 11:59:51;;;;;;;4.65;1.80;;;;;;;;;;5044373;28;19931;-84
2022/08/01 12:02:22;;;;;;;5.45;2.05;;;;;;;;;;5046554;28;20051;-84
2022/08/01 12:04:59;;;;;;;2.25;2.03;;;;;;;;;;5022340;28;20017;-83
2022/08/01 12:07:27;;;;;;;2.05;1.80;;;;;;;;;;5031981;28;20123;-85
2022/08/01 12:10:07;;;;;;;2.85;1.75;;;;;;;;;;5051657;28;20021;-81
2022/08/01 12:12:34;;;;;;;1.80;1.70;;;;;;;;;;5054370;28;20028;-83
2022/08/01 12:15:05;;;;;;;1.85;1.63;;;;;;;;;;5024796;28;20097;-84
2022/08/01 12:17:33;;;;;;;3.38;1.63;;;;;;;;;;5056063;28;20100;-84
2022/08/01 12:19:59;;;;;;;1.75;1.60;;;;;;;;;;5043493;28;20435;-82
2022/08/01 12:22:25;;;;;;;3.67;1.60;;;;;;;;;;5032385;28;20029;-83
2022/08/01 12:24:51;;;;;;;2.97;1.70;;;;;;;;;;5040004;28;20447;-83
2022/08/01 12:27:25;;;;;;;3.17;1.77;;;;;;;;;;5024407;28;20075;-82
2022/08/01 12:29:50;;;;;;;2.92;1.73;;;;;;;;;;5043424;28;20159;-81
2022/08/01 12:32:31;;;;;;;2.83;1.70;;;;;;;;;;5052118;28;20029;-81
2022/08/01 12:35:04;;;;;;;1.55;1.45;;;;;;;;;;5034659;28;20036;-81
2022/08/01 12:37:30;;;;;;;3.13;1.80;;;;;;;;;;5049900;28;20036;-83
2022/08/01 12:39:55;;;;;;;3.30;1.90;;;;;;;;;;5048159;28;20028;-81
2022/08/01 12:42:21;;;;;;;3.53;1.70;;;;;;;;;;5047962;28;20040;-83
2022/08/01 12:44:50;;;;;;;2.97;1.77;;;;;;;;;;5056804;28;20025;-83
2022/08/01 12:47:18;;;;;;;2.20;1.67;;;;;;;;;;5043494;28;20029;-84
2022/08/01 12:49:44;;;;;;;3.72;1.42;;;;;;;;;;5054966;28;20021;-83
2022/08/01 12:52:10;;;;;;;4.07;1.70;;;;;;;;;;5048111;28;20057;-85
2022/08/01 12:55:06;;;;;;;2.53;1.70;;;;;;;;;;5033076;28;20021;-84
2022/08/01 12:57:32;;;;;;;2.85;1.35;;;;;;;;;;5060537;28;20029;-85
2022/08/01 13:00:10;;;;;;;2.95;1.80;;;;;;;;;;5063086;28;20055;-84
2022/08/01 13:02:35;;;;;;;2.03;1.50;;;;;;;;;;5048453;28;21674;-84
2022/08/01 13:05:01;;;;;;;3.03;1.50;;;;;;;;;;5065522;28;20028;-82
2022/08/01 13:07:44;;;;;;;1.75;1.50;;;;;;;;;;5064998;28;20036;-83
2022/08/01 13:10:11;;;;;;;3.75;1.83;;;;;;;;;;5052158;28;20475;-84
2022/08/01 13:12:38;;;;;;;5.68;1.70;;;;;;;;;;5059379;28;20103;-83
2022/08/01 13:15:24;;;;;;;2.03;1.80;;;;;;;;;;5049115;28;20064;-83
2022/08/01 13:17:51;;;;;;;3.30;1.67;;;;;;;;;;5044633;28;20122;-84
2022/08/01 13:20:29;;;;;;;2.50;1.50;;;;;;;;;;5058264;28;20029;-83
2022/08/01 13:22:55;;;;;;;1.40;1.30;;;;;;;;;;5052373;28;20026;-80
2022/08/01 13:25:21;;;;;;;3.47;1.70;;;;;;;;;;5046462;28;20022;-84
2022/08/01 13:27:46;;;;;;;1.70;1.50;;;;;;;;;;5045498;28;20090;-82
2022/08/01 13:30:14;;;;;;;2.45;1.40;;;;;;;;;;5043116;28;20098;-88
2022/08/01 13:32:39;;;;;;;3.78;1.55;;;;;;;;;;5055903;28;20415;-83
2022/08/01 13:35:08;;;;;;;2.35;1.55;;;;;;;;;;5049628;28;20026;-84
2022/08/01 13:37:33;;;;;;;2.45;1.20;;;;;;;;;;5046278;28;20109;-82
2022/08/01 13:39:58;;;;;;;1.25;1.17;;;;;;;;;;5047074;28;20041;-84
2022/08/01 13:42:24;;;;;;;2.95;1.55;;;;;;;;;;5056024;28;20028;-85
2022/08/01 13:44:49;;;;;;;6.32;1.60;;;;;;;;;;5043718;28;20084;-87
2022/08/01 13:47:15;;;;;;;1.50;1.30;;;;;;;;;;5040531;28;20041;-86
2022/08/01 13:49:40;;;;;;;3.83;1.45;;;;;;;;;;5022693;28;20022;-84
2022/08/01 13:52:06;;;;;;;1.50;1.40;;;;;;;;;;5051029;28;20029;-84
2022/08/01 13:54:31;;;;;;;3.00;1.60;;;;;;;;;;5047490;28;20028;-83
2022/08/01 13:56:56;;;;;;;2.72;1.70;;;;;;;;;;5060427;28;20048;-84
2022/08/01 13:59:22;;;;;;;3.53;1.40;;;;;;;;;;5042189;28;20494;-83
2022/08/01 14:01:47;;;;;;;1.70;1.60;;;;;;;;;;5044666;28;20017;-84
2022/08/01 14:04:13;;;;;;;1.40;1.30;;;;;;;;;;5055177;28;20039;-84
2022/08/01 14:06:38;;;;;;;2.28;1.40;;;;;;;;;;5050909;28;20025;-81
2022/08/01 14:09:04;;;;;;;1.58;1.48;;;;;;;;;;5043488;28;20060;-83
2022/08/01 14:11:30;;;;;;;6.38;1.67;;;;;;;;;;5028587;28;20032;-86
2022/08/01 14:13:56;;;;;;;1.67;1.58;;;;;;;;;;5052682;28;20040;-80
2022/08/01 14:16:22;;;;;;;2.17;1.83;;;;;;;;;;5040319;28;20108;-80
2022/08/01 14:18:48;;;;;;;3.15;1.20;;;;;;;;;;5038756;28;20040;-84
2022/08/01 14:21:14;;;;;;;6.47;1.60;;;;;;;;;;5053444;28;20056;-84
2022/08/01 14:23:40;;;;;;;6.35;1.50;;;;;;;;;;5047210;28;20029;-84
2022/08/01 14:26:05;;;;;;;1.98;1.40;;;;;;;;;;5053741;28;20032;-85
2022/08/01 14:28:31;;;;;;;3.22;1.45;;;;;;;;;;5043300;28;20484;-83
2022/08/01 14:30:57;;;;;;;6.03;1.50;;;;;;;;;;5048591;28;20190;-84
2022/08/01 14:33:23;;;;;;;1.48;1.20;;;;;;;;;;5041737;28;20025;-85
2022/08/01 14:35:48;;;;;;;1.65;1.55;;;;;;;;;;5042033;28;20048;-84
2022/08/01 14:38:14;;;;;;;1.45;1.35;;;;;;;;;;5024280;28;20044;-85
2022/08/01 14:40:40;;;;;;;2.05;1.50;;;;;;;;;;5047162;28;20361;-84
2022/08/01 14:43:06;;;;;;;3.80;1.65;;;;;;;;;;5062247;28;20029;-84
2022/08/01 14:45:32;;;;;;;1.75;1.38;;;;;;;;;;5042769;28;20025;-84
2022/08/01 14:47:58;;;;;;;4.38;1.30;;;;;;;;;;5031324;28;20143;-83